createdAt,value
2022-10-16T00:00:27.029Z,13.76
2022-10-16T00:03:26.698Z,13.76
2022-10-16T00:06:27.929Z,13.73
2022-10-16T00:09:24.819Z,13.74
2022-10-16T00:12:21.677Z,13.76
2022-10-16T00:15:18.869Z,13.74
2022-10-16T00:18:15.732Z,13.73
2022-10-16T00:21:20.183Z,13.69
2022-10-16T00:24:17.020Z,13.75
2022-10-16T00:27:13.871Z,13.75
2022-10-16T00:30:11.064Z,13.65
2022-10-16T00:33:08.057Z,13.66
2022-10-16T00:36:07.015Z,13.65
2022-10-16T00:39:04.349Z,13.76
2022-10-16T00:42:01.320Z,13.59
2022-10-16T00:44:59.349Z,13.62
2022-10-16T00:47:57.606Z,13.66
2022-10-16T00:50:54.739Z,13.66
2022-10-16T00:53:51.828Z,13.62
2022-10-16T00:56:50.285Z,13.72
2022-10-16T00:59:47.569Z,13.64
2022-10-16T01:02:44.724Z,13.59
2022-10-16T01:05:53.144Z,13.60
2022-10-16T01:09:26.397Z,13.62
2022-10-16T01:12:45.483Z,13.57
2022-10-16T01:16:07.581Z,13.57
2022-10-16T01:19:17.605Z,13.55
2022-10-16T01:22:15.621Z,13.55
2022-10-16T01:25:57.384Z,13.55
2022-10-16T01:29:29.256Z,13.52
2022-10-16T01:33:00.976Z,13.55
2022-10-16T01:36:15.725Z,13.50
2022-10-16T01:39:14.325Z,13.52
2022-10-16T01:42:25.205Z,13.46
2022-10-16T01:45:23.088Z,13.50
2022-10-16T01:48:23.807Z,13.50
2022-10-16T01:51:21.652Z,13.50
2022-10-16T01:54:21.022Z,13.53
2022-10-16T01:57:19.763Z,13.37
2022-10-16T02:00:19.865Z,13.43
2022-10-16T02:03:20.610Z,13.47
2022-10-16T02:06:17.536Z,13.47
2022-10-16T02:09:16.717Z,13.52
2022-10-16T02:12:29.045Z,13.53
2022-10-16T02:15:26.057Z,13.55
2022-10-16T02:18:23.358Z,13.50
2022-10-16T02:21:52.038Z,13.51
2022-10-16T02:25:14.358Z,13.51
2022-10-16T02:28:23.332Z,13.49
2022-10-16T02:31:35.138Z,13.48
2022-10-16T02:34:34.356Z,13.55
2022-10-16T02:37:31.975Z,13.48
2022-10-16T02:40:29.224Z,13.48
2022-10-16T02:43:26.775Z,13.53
2022-10-16T02:46:23.686Z,13.50
2022-10-16T02:49:20.484Z,13.48
2022-10-16T02:52:17.287Z,13.40
2022-10-16T02:55:14.276Z,13.51
2022-10-16T02:58:11.128Z,13.52
2022-10-16T03:01:08.062Z,13.54
2022-10-16T03:04:05.391Z,13.47
2022-10-16T03:07:02.319Z,13.50
2022-10-16T03:10:01.221Z,13.47
2022-10-16T03:12:58.109Z,13.53
2022-10-16T03:15:55.109Z,13.50
2022-10-16T03:18:51.957Z,13.53
2022-10-16T03:21:48.866Z,13.55
2022-10-16T03:24:45.690Z,13.48
2022-10-16T03:27:42.497Z,13.59
2022-10-16T03:30:40.659Z,13.52
2022-10-16T03:33:37.520Z,13.47
2022-10-16T03:36:34.384Z,13.49
2022-10-16T03:39:31.197Z,13.50
2022-10-16T03:42:28.012Z,13.42
2022-10-16T03:45:25.724Z,13.50
2022-10-16T03:48:22.531Z,13.42
2022-10-16T03:51:19.392Z,13.45
2022-10-16T03:54:16.202Z,13.43
2022-10-16T03:57:13.068Z,13.41
2022-10-16T04:00:11.160Z,13.47
2022-10-16T04:03:07.990Z,13.41
2022-10-16T04:06:04.918Z,13.40
2022-10-16T04:09:01.731Z,13.36
2022-10-16T04:11:58.579Z,13.32
2022-10-16T04:14:55.425Z,13.22
2022-10-16T04:17:53.155Z,13.27
2022-10-16T04:20:49.980Z,13.41
2022-10-16T04:23:46.835Z,13.32
2022-10-16T04:26:43.679Z,13.30
2022-10-16T04:29:40.556Z,13.27
2022-10-16T04:32:37.414Z,13.19
2022-10-16T04:35:34.285Z,13.27
2022-10-16T04:38:31.523Z,13.24
2022-10-16T04:41:28.378Z,13.31
2022-10-16T04:44:25.223Z,13.33
2022-10-16T04:47:22.028Z,13.31
2022-10-16T04:50:18.831Z,13.27
2022-10-16T04:53:15.754Z,13.31
2022-10-16T04:56:12.683Z,13.34
2022-10-16T04:59:10.523Z,13.30
2022-10-16T05:02:07.326Z,13.24
2022-10-16T05:05:04.638Z,13.24
2022-10-16T05:08:01.707Z,13.23
2022-10-16T05:10:58.551Z,13.16
2022-10-16T05:13:55.982Z,13.22
2022-10-16T05:16:53.009Z,13.14
2022-10-16T05:19:49.846Z,13.07
2022-10-16T05:22:46.644Z,13.06
2022-10-16T05:25:43.482Z,13.04
2022-10-16T05:28:40.356Z,13.07
2022-10-16T05:31:37.241Z,12.98
2022-10-16T05:34:34.217Z,12.93
2022-10-16T05:37:31.435Z,12.90
2022-10-16T05:40:28.847Z,12.93
2022-10-16T05:43:25.753Z,12.96
2022-10-16T05:46:22.586Z,12.92
2022-10-16T05:49:19.407Z,12.90
2022-10-16T05:52:16.329Z,12.88
2022-10-16T05:55:13.360Z,12.92
2022-10-16T05:58:10.287Z,12.92
2022-10-16T06:01:19.587Z,12.96
2022-10-16T06:04:16.446Z,12.91
2022-10-16T06:07:13.345Z,12.97
2022-10-16T06:10:10.298Z,12.95
2022-10-16T06:13:07.147Z,12.91
2022-10-16T06:16:05.412Z,12.94
2022-10-16T06:19:02.957Z,12.91
2022-10-16T06:22:00.203Z,12.87
2022-10-16T06:24:57.030Z,12.90
2022-10-16T06:27:53.865Z,12.92
2022-10-16T06:31:01.835Z,12.93
2022-10-16T06:34:01.653Z,12.91
2022-10-16T06:36:58.477Z,12.95
2022-10-16T06:39:55.333Z,12.96
2022-10-16T06:42:52.898Z,13.00
2022-10-16T06:45:57.159Z,13.02
2022-10-16T06:48:54.510Z,13.00
2022-10-16T06:51:51.389Z,12.99
2022-10-16T06:54:48.377Z,13.01
2022-10-16T06:57:48.583Z,13.04
2022-10-16T07:00:45.447Z,13.01
2022-10-16T07:03:44.656Z,13.00
2022-10-16T07:06:41.549Z,13.01
2022-10-16T07:09:38.421Z,13.05
2022-10-16T07:12:35.273Z,13.09
2022-10-16T07:15:32.091Z,13.05
2022-10-16T07:21:36.573Z,13.16
2022-10-16T07:24:33.810Z,13.20
2022-10-16T07:27:30.700Z,13.18
2022-10-16T07:30:27.580Z,13.21
2022-10-16T07:33:24.475Z,13.22
2022-10-16T07:36:22.561Z,13.23
2022-10-16T07:39:19.477Z,13.27
2022-10-16T07:42:16.453Z,13.32
2022-10-16T07:45:13.325Z,13.40
2022-10-16T07:48:10.157Z,13.34
2022-10-16T07:51:08.319Z,13.28
2022-10-16T07:54:05.250Z,13.38
2022-10-16T07:57:02.083Z,13.55
2022-10-16T07:59:58.962Z,13.53
2022-10-16T08:02:55.805Z,13.65
2022-10-16T08:05:52.930Z,13.76
2022-10-16T08:08:50.105Z,13.89
2022-10-16T08:11:47.160Z,14.06
2022-10-16T08:14:47.030Z,14.08
2022-10-16T08:17:44.905Z,14.04
2022-10-16T08:20:43.292Z,13.93
2022-10-16T08:23:40.117Z,13.99
2022-10-16T08:26:36.958Z,13.93
2022-10-16T08:29:34.016Z,14.03
2022-10-16T08:32:31.014Z,13.95
2022-10-16T08:35:27.992Z,13.99
2022-10-16T08:38:24.916Z,14.01
2022-10-16T08:42:02.142Z,14.06
2022-10-16T08:45:51.788Z,14.14
2022-10-16T08:48:55.818Z,14.36
2022-10-16T08:51:52.958Z,14.39
2022-10-16T08:54:54.908Z,14.40
2022-10-16T08:57:51.916Z,14.32
2022-10-16T09:00:56.309Z,14.39
2022-10-16T09:04:56.845Z,14.44
2022-10-16T09:08:21.268Z,14.61
2022-10-16T09:11:33.678Z,14.49
2022-10-16T09:14:56.024Z,14.53
2022-10-16T09:18:51.403Z,14.55
2022-10-16T09:21:49.063Z,14.58
2022-10-16T09:24:46.063Z,14.64
2022-10-16T09:27:47.714Z,14.71
2022-10-16T09:30:45.855Z,14.72
2022-10-16T09:33:43.763Z,14.74
2022-10-16T09:36:47.267Z,14.88
2022-10-16T09:39:55.380Z,14.84
2022-10-16T09:43:09.516Z,14.64
2022-10-16T09:46:22.053Z,14.71
2022-10-16T09:49:27.950Z,14.79
2022-10-16T09:52:25.553Z,14.78
2022-10-16T09:55:22.369Z,14.92
2022-10-16T09:58:22.370Z,14.93
2022-10-16T10:01:21.919Z,14.94
2022-10-16T10:04:26.781Z,14.82
2022-10-16T10:07:40.670Z,14.90
2022-10-16T10:10:43.981Z,14.99
2022-10-16T10:13:40.817Z,14.94
2022-10-16T10:16:37.702Z,14.93
2022-10-16T10:19:48.818Z,14.99
2022-10-16T10:22:47.029Z,14.79
2022-10-16T10:26:04.074Z,14.96
2022-10-16T10:29:18.580Z,14.87
2022-10-16T10:32:43.087Z,14.93
2022-10-16T10:36:31.672Z,14.93
2022-10-16T10:40:35.318Z,15.05
2022-10-16T10:43:59.630Z,15.12
2022-10-16T10:47:10.826Z,15.16
2022-10-16T10:50:15.843Z,15.15
2022-10-16T10:53:33.594Z,15.10
2022-10-16T10:56:57.799Z,15.05
2022-10-16T11:00:29.262Z,15.12
2022-10-16T11:03:42.445Z,15.11
2022-10-16T11:06:52.286Z,15.07
2022-10-16T11:09:59.511Z,15.35
2022-10-16T11:13:23.062Z,15.24
2022-10-16T11:16:28.566Z,15.22
2022-10-16T11:20:01.605Z,15.20
2022-10-16T11:23:56.171Z,15.22
2022-10-16T11:26:56.782Z,15.21
2022-10-16T11:30:07.596Z,15.24
2022-10-16T11:33:24.114Z,15.13
2022-10-16T11:36:37.366Z,15.14
2022-10-16T11:39:34.482Z,15.14
2022-10-16T11:42:42.874Z,15.23
2022-10-16T11:46:05.333Z,15.11
2022-10-16T11:49:16.306Z,15.28
2022-10-16T11:52:53.261Z,15.45
2022-10-16T11:55:50.357Z,15.41
2022-10-16T11:59:14.637Z,15.66
2022-10-16T12:02:49.660Z,15.77
2022-10-16T12:06:01.525Z,16.44
2022-10-16T12:09:04.108Z,16.42
2022-10-16T12:12:01.611Z,16.20
2022-10-16T12:15:57.699Z,16.32
2022-10-16T12:19:03.713Z,16.05
2022-10-16T12:22:04.505Z,16.28
2022-10-16T12:25:01.451Z,16.62
2022-10-16T12:28:28.768Z,16.87
2022-10-16T12:31:54.844Z,16.73
2022-10-16T12:34:55.374Z,16.34
2022-10-16T12:37:53.065Z,16.20
2022-10-16T12:41:06.590Z,16.27
2022-10-16T12:44:04.103Z,16.28
2022-10-16T12:47:02.704Z,17.24
2022-10-16T12:50:02.240Z,16.48
2022-10-16T12:53:03.107Z,16.75
2022-10-16T12:56:08.943Z,16.57
2022-10-16T12:59:23.833Z,16.54
2022-10-16T13:02:45.220Z,16.98
2022-10-16T13:06:22.082Z,17.36
2022-10-16T13:09:41.188Z,17.76
2022-10-16T13:13:14.565Z,17.46
2022-10-16T13:16:57.901Z,17.48
2022-10-16T13:20:29.816Z,17.78
2022-10-16T13:24:03.658Z,17.50
2022-10-16T13:27:14.835Z,17.87
2022-10-16T13:30:29.739Z,17.66
2022-10-16T13:33:43.137Z,16.93
2022-10-16T13:36:58.269Z,17.36
2022-10-16T13:40:21.305Z,17.01
2022-10-16T13:43:42.511Z,17.18
2022-10-16T13:46:39.375Z,17.10
2022-10-16T13:49:36.212Z,16.85
2022-10-16T13:52:33.538Z,16.81
2022-10-16T13:55:31.691Z,16.91
2022-10-16T13:58:28.643Z,16.87
2022-10-16T14:01:44.545Z,16.70
2022-10-16T14:04:42.004Z,16.57
2022-10-16T14:07:39.258Z,16.63
2022-10-16T14:10:36.196Z,16.73
2022-10-16T14:13:44.204Z,16.83
2022-10-16T14:16:43.585Z,16.81
2022-10-16T14:19:40.582Z,16.77
2022-10-16T14:22:41.769Z,16.61
2022-10-16T14:25:38.612Z,16.58
2022-10-16T14:28:38.119Z,16.49
2022-10-16T14:31:37.293Z,16.57
2022-10-16T14:34:38.401Z,16.60
2022-10-16T14:37:35.428Z,16.57
2022-10-16T14:40:36.041Z,16.66
2022-10-16T14:43:40.655Z,16.61
2022-10-16T14:46:40.521Z,16.51
2022-10-16T14:49:37.438Z,16.45
2022-10-16T14:52:34.267Z,16.39
2022-10-16T14:55:31.071Z,16.32
2022-10-16T14:58:27.937Z,16.21
2022-10-16T15:01:24.858Z,15.93
2022-10-16T15:04:23.189Z,16.06
2022-10-16T15:07:22.826Z,16.30
2022-10-16T15:10:20.737Z,16.04
2022-10-16T15:13:20.425Z,16.02
2022-10-16T15:16:17.762Z,15.91
2022-10-16T15:19:23.071Z,15.69
2022-10-16T15:22:20.002Z,15.53
2022-10-16T15:25:50.444Z,15.43
2022-10-16T15:28:47.349Z,15.31
2022-10-16T15:31:44.200Z,15.33
2022-10-16T15:34:41.006Z,15.28
2022-10-16T15:37:40.668Z,15.21
2022-10-16T15:40:38.597Z,15.14
2022-10-16T15:43:35.425Z,15.12
2022-10-16T15:46:40.093Z,15.14
2022-10-16T15:49:36.969Z,15.00
2022-10-16T15:52:38.214Z,15.01
2022-10-16T15:55:38.860Z,14.94
2022-10-16T15:58:35.903Z,14.88
2022-10-16T16:01:36.777Z,14.72
2022-10-16T16:04:49.073Z,14.74
2022-10-16T16:07:46.006Z,14.73
2022-10-16T16:10:42.999Z,14.74
2022-10-16T16:13:41.089Z,14.73
2022-10-16T16:16:39.058Z,14.72
2022-10-16T16:19:35.923Z,14.63
2022-10-16T16:22:33.160Z,14.65
2022-10-16T16:25:30.011Z,14.67
2022-10-16T16:28:26.951Z,14.68
2022-10-16T16:31:29.159Z,14.64
2022-10-16T16:34:28.407Z,14.58
2022-10-16T16:37:25.446Z,14.56
2022-10-16T16:40:22.512Z,14.49
2022-10-16T16:43:23.297Z,14.48
2022-10-16T16:46:20.268Z,14.47
2022-10-16T16:49:17.182Z,14.40
2022-10-16T16:52:15.131Z,14.47
2022-10-16T16:55:11.955Z,14.42
2022-10-16T16:58:08.900Z,14.38
2022-10-16T17:01:19.413Z,14.36
2022-10-16T17:04:24.924Z,14.30
2022-10-16T17:07:24.093Z,14.29
2022-10-16T17:10:21.398Z,14.48
2022-10-16T17:13:18.237Z,14.48
2022-10-16T17:16:17.597Z,14.42
2022-10-16T17:19:21.596Z,14.32
2022-10-16T17:22:19.882Z,14.36
2022-10-16T17:25:17.624Z,14.28
2022-10-16T17:28:14.920Z,14.36
2022-10-16T17:31:18.738Z,14.34
2022-10-16T17:34:19.853Z,14.34
2022-10-16T17:37:18.556Z,14.32
2022-10-16T17:40:20.977Z,14.20
2022-10-16T17:43:18.003Z,14.02
2022-10-16T17:46:18.328Z,14.09
2022-10-16T17:49:15.267Z,14.00
2022-10-16T17:52:12.199Z,14.02
2022-10-16T17:55:09.578Z,13.94
2022-10-16T17:58:06.456Z,14.01
2022-10-16T18:01:22.592Z,14.01
2022-10-16T18:04:19.637Z,14.03
2022-10-16T18:07:16.875Z,13.90
2022-10-16T18:10:15.519Z,13.85
2022-10-16T18:13:16.936Z,13.75
2022-10-16T18:16:15.324Z,13.64
2022-10-16T18:19:12.790Z,13.42
2022-10-16T18:22:09.633Z,13.51
2022-10-16T18:25:07.632Z,13.47
2022-10-16T18:28:06.650Z,13.41
2022-10-16T18:31:11.146Z,13.34
2022-10-16T18:34:08.150Z,13.32
2022-10-16T18:37:04.975Z,13.41
2022-10-16T18:40:01.805Z,13.37
2022-10-16T18:42:58.619Z,13.30
2022-10-16T18:46:08.875Z,13.40
2022-10-16T18:49:06.109Z,13.52
2022-10-16T18:52:03.532Z,13.43
2022-10-16T18:55:00.572Z,13.44
2022-10-16T18:57:57.405Z,13.46
2022-10-16T19:00:54.214Z,13.47
2022-10-16T19:04:00.591Z,13.48
2022-10-16T19:06:57.478Z,13.47
2022-10-16T19:09:54.751Z,13.51
2022-10-16T19:12:51.559Z,13.44
2022-10-16T19:15:58.015Z,13.43
2022-10-16T19:18:57.777Z,13.42
2022-10-16T19:22:11.392Z,13.49
2022-10-16T19:25:08.983Z,13.42
2022-10-16T19:28:08.396Z,13.38
2022-10-16T19:31:08.532Z,13.36
2022-10-16T19:34:07.419Z,13.40
2022-10-16T19:37:04.290Z,13.37
2022-10-16T19:40:01.123Z,13.38
2022-10-16T19:42:57.970Z,13.35
2022-10-16T19:45:54.780Z,13.31
2022-10-16T19:48:57.543Z,13.19
2022-10-16T19:51:54.556Z,13.19
2022-10-16T19:54:51.466Z,13.13
2022-10-16T19:57:48.279Z,13.14
2022-10-16T20:00:45.126Z,13.10
2022-10-16T20:03:45.218Z,13.09
2022-10-16T20:06:42.466Z,13.03
2022-10-16T20:09:39.349Z,13.05
2022-10-16T20:12:36.148Z,13.05
2022-10-16T20:15:32.946Z,12.99
2022-10-16T20:18:30.292Z,12.97
2022-10-16T20:21:31.336Z,12.90
2022-10-16T20:24:28.217Z,13.00
2022-10-16T20:27:25.567Z,12.94
2022-10-16T20:30:22.854Z,12.89
2022-10-16T20:33:19.750Z,12.80
2022-10-16T20:36:17.961Z,12.81
2022-10-16T20:39:14.810Z,12.80
2022-10-16T20:42:11.636Z,12.78
2022-10-16T20:45:09.137Z,12.75
2022-10-16T20:48:06.254Z,12.76
2022-10-16T20:51:30.442Z,12.59
2022-10-16T20:54:27.517Z,12.53
2022-10-16T20:57:24.448Z,12.49
2022-10-16T21:00:22.985Z,12.45
2022-10-16T21:03:19.821Z,12.51
2022-10-16T21:06:16.704Z,12.34
2022-10-16T21:09:13.574Z,12.35
2022-10-16T21:12:10.986Z,12.34
2022-10-16T21:15:15.857Z,12.36
2022-10-16T21:18:12.790Z,12.34
2022-10-16T21:21:10.900Z,12.35
2022-10-16T21:24:12.101Z,12.23
2022-10-16T21:27:11.884Z,12.21
2022-10-16T21:30:10.018Z,12.21
2022-10-16T21:33:06.837Z,12.12
2022-10-16T21:36:14.119Z,12.07
2022-10-16T21:39:14.956Z,12.09
2022-10-16T21:42:11.781Z,12.07
2022-10-16T21:45:09.060Z,12.12
2022-10-16T21:48:06.051Z,12.09
2022-10-16T21:51:03.234Z,12.03
2022-10-16T21:54:05.780Z,12.02
2022-10-16T21:57:05.554Z,11.93
2022-10-16T22:00:06.838Z,11.91
2022-10-16T22:03:05.784Z,11.86
2022-10-16T22:06:06.600Z,11.80
2022-10-16T22:09:03.776Z,11.86
2022-10-16T22:12:00.610Z,11.89
2022-10-16T22:14:57.511Z,11.81
2022-10-16T22:17:54.334Z,11.77
2022-10-16T22:20:51.216Z,11.77
2022-10-16T22:23:48.174Z,11.85
2022-10-16T22:26:45.202Z,11.76
2022-10-16T22:29:42.052Z,11.69
2022-10-16T22:32:38.926Z,11.69
2022-10-16T22:35:40.787Z,11.68
2022-10-16T22:38:38.018Z,11.66
2022-10-16T22:41:34.873Z,11.65
2022-10-16T22:44:31.721Z,11.62
2022-10-16T22:47:29.350Z,11.55
2022-10-16T22:50:27.214Z,11.53
2022-10-16T22:53:24.074Z,11.56
2022-10-16T22:56:22.196Z,11.46
2022-10-16T22:59:19.012Z,11.40
2022-10-16T23:02:16.132Z,11.46
2022-10-16T23:05:13.011Z,11.35
2022-10-16T23:08:12.186Z,11.42
2022-10-16T23:11:12.509Z,11.33
2022-10-16T23:14:09.339Z,11.34
2022-10-16T23:17:06.154Z,11.31
2022-10-16T23:20:03.743Z,11.40
2022-10-16T23:23:00.566Z,11.35
2022-10-16T23:25:57.636Z,11.40
2022-10-16T23:28:58.999Z,11.31
2022-10-16T23:31:57.067Z,11.28
2022-10-16T23:34:53.880Z,11.32
2022-10-16T23:37:51.531Z,11.30
2022-10-16T23:40:48.358Z,11.36
2022-10-16T23:43:45.313Z,11.40
2022-10-16T23:46:42.110Z,11.28
2022-10-16T23:49:38.954Z,11.16
2022-10-16T23:52:35.836Z,11.22
2022-10-16T23:58:34.801Z,11.21
